createdAt,value
2022-12-25T00:01:06.722Z,67926.09
2022-12-25T00:03:33.638Z,67970.09
2022-12-25T00:06:00.319Z,67890.19
2022-12-25T00:08:27.054Z,67897.69
2022-12-25T00:11:02.499Z,67937.25
2022-12-25T00:13:29.536Z,67900.59
2022-12-25T00:15:56.693Z,67926.81
2022-12-25T00:18:23.676Z,67937.63
2022-12-25T00:21:01.121Z,67938.56
2022-12-25T00:23:27.918Z,67939.53
2022-12-25T00:25:54.956Z,67957.69
2022-12-25T00:28:23.176Z,67888.56
2022-12-25T00:30:49.983Z,67920.41
2022-12-25T00:33:16.803Z,67923.69
2022-12-25T00:35:43.449Z,67899.16
2022-12-25T00:38:10.413Z,67965.00
2022-12-25T00:40:44.230Z,67971.16
2022-12-25T00:43:11.161Z,67934.06
2022-12-25T00:45:37.899Z,67931.38
2022-12-25T00:48:04.689Z,67930.22
2022-12-25T00:50:31.349Z,67961.88
2022-12-25T00:52:57.939Z,67961.88
2022-12-25T00:55:24.581Z,67916.66
2022-12-25T00:57:51.207Z,67918.78
2022-12-25T01:00:18.015Z,67962.25
2022-12-25T01:02:44.849Z,67955.28
2022-12-25T01:05:11.482Z,67996.44
2022-12-25T01:07:38.081Z,67906.22
2022-12-25T01:10:23.341Z,67988.47
2022-12-25T01:12:51.655Z,67920.50
2022-12-25T01:15:19.179Z,67941.72
2022-12-25T01:17:45.909Z,67956.41
2022-12-25T01:20:14.072Z,67962.97
2022-12-25T01:22:40.760Z,67990.00
2022-12-25T01:25:09.186Z,67973.38
2022-12-25T01:27:35.817Z,67931.66
2022-12-25T01:30:02.491Z,67954.84
2022-12-25T01:32:29.136Z,68003.13
2022-12-25T01:34:56.512Z,67967.19
2022-12-25T01:37:24.820Z,67950.94
2022-12-25T01:39:51.765Z,67979.16
2022-12-25T01:42:20.687Z,67986.88
2022-12-25T01:44:47.237Z,67949.00
2022-12-25T01:47:16.373Z,68017.78
2022-12-25T01:49:46.216Z,67954.03
2022-12-25T01:52:24.495Z,67975.66
2022-12-25T01:55:04.127Z,67982.81
2022-12-25T01:57:34.403Z,67951.50
2022-12-25T02:00:01.958Z,67961.34
2022-12-25T02:02:32.277Z,67972.53
2022-12-25T02:05:04.351Z,67991.09
2022-12-25T02:07:34.751Z,67927.31
2022-12-25T02:10:01.465Z,67967.91
2022-12-25T02:12:34.079Z,67958.03
2022-12-25T02:15:11.581Z,67927.16
2022-12-25T02:17:47.331Z,67986.81
2022-12-25T02:20:25.945Z,67923.47
2022-12-25T02:23:05.433Z,67974.28
2022-12-25T02:26:10.263Z,67972.53
2022-12-25T02:28:46.487Z,67976.22
2022-12-25T02:31:39.917Z,68016.63
2022-12-25T02:34:20.691Z,68008.91
2022-12-25T02:37:01.493Z,67983.22
2022-12-25T02:39:55.661Z,67970.28
2022-12-25T02:43:16.475Z,67982.06
2022-12-25T02:46:12.360Z,67916.41
2022-12-25T02:49:03.595Z,67945.00
2022-12-25T02:51:53.214Z,67963.75
2022-12-25T02:54:45.443Z,67978.03
2022-12-25T02:57:33.249Z,67925.91
2022-12-25T03:00:20.622Z,67926.66
2022-12-25T03:03:07.559Z,67974.56
2022-12-25T03:05:58.795Z,67956.41
2022-12-25T03:08:34.652Z,67994.81
2022-12-25T03:11:26.390Z,67980.34
2022-12-25T03:14:17.826Z,67974.94
2022-12-25T03:16:53.649Z,67928.94
2022-12-25T03:19:42.292Z,67961.00
2022-12-25T03:22:31.894Z,67960.44
2022-12-25T03:25:17.205Z,67986.91
2022-12-25T03:27:46.950Z,67976.09
2022-12-25T03:30:46.077Z,67951.16
2022-12-25T03:33:44.555Z,67945.38
2022-12-25T03:36:51.060Z,68008.72
2022-12-25T03:39:59.951Z,67992.31
2022-12-25T03:42:43.233Z,67946.50
2022-12-25T03:45:51.283Z,67915.78
2022-12-25T03:48:37.407Z,67938.56
2022-12-25T03:51:28.665Z,67936.06
2022-12-25T03:54:19.925Z,67941.47
2022-12-25T03:57:05.850Z,67994.41
2022-12-25T03:59:51.056Z,67954.59
2022-12-25T04:02:56.205Z,67963.28
2022-12-25T04:05:41.838Z,67971.41
2022-12-25T04:08:27.315Z,67981.84
2022-12-25T04:11:12.922Z,67967.13
2022-12-25T04:14:23.891Z,67967.34
2022-12-25T04:17:12.294Z,67985.28
2022-12-25T04:19:57.113Z,67960.38
2022-12-25T04:22:42.448Z,67998.81
2022-12-25T04:25:27.619Z,67971.94
2022-12-25T04:28:12.500Z,67962.09
2022-12-25T04:30:57.935Z,67946.63
2022-12-25T04:33:43.139Z,67969.81
2022-12-25T04:36:09.717Z,67955.31
2022-12-25T04:38:37.628Z,67955.88
2022-12-25T04:41:05.039Z,67976.00
2022-12-25T04:43:31.649Z,67979.25
2022-12-25T04:46:00.198Z,67980.97
2022-12-25T04:48:28.502Z,67992.97
2022-12-25T04:50:55.263Z,67976.16
2022-12-25T04:53:22.940Z,68005.34
2022-12-25T04:55:49.649Z,68007.47
2022-12-25T04:58:16.275Z,67967.47
2022-12-25T05:00:42.842Z,68016.91
2022-12-25T05:03:09.509Z,67973.63
2022-12-25T05:05:39.323Z,68040.13
2022-12-25T05:08:06.165Z,68005.69
2022-12-25T05:10:32.803Z,67970.53
2022-12-25T05:12:59.495Z,67975.94
2022-12-25T05:15:26.156Z,67982.50
2022-12-25T05:17:52.732Z,67983.09
2022-12-25T05:20:19.376Z,68023.28
2022-12-25T05:22:45.952Z,67964.31
2022-12-25T05:25:12.524Z,67976.69
2022-12-25T05:27:39.333Z,67965.47
2022-12-25T05:30:06.690Z,67958.91
2022-12-25T05:32:33.239Z,68014.75
2022-12-25T05:35:00.504Z,67991.53
2022-12-25T05:37:27.125Z,67993.09
2022-12-25T05:39:53.670Z,67984.59
2022-12-25T05:42:20.319Z,67983.44
2022-12-25T05:44:46.868Z,68014.75
2022-12-25T05:47:13.403Z,67993.69
2022-12-25T05:49:39.989Z,67978.59
2022-12-25T05:52:06.630Z,67997.16
2022-12-25T05:54:34.726Z,67994.44
2022-12-25T05:57:01.428Z,68001.97
2022-12-25T05:59:32.635Z,67979.75
2022-12-25T06:02:00.141Z,67985.75
2022-12-25T06:04:26.880Z,68028.06
2022-12-25T06:06:53.754Z,67989.03
2022-12-25T06:09:20.356Z,68012.81
2022-12-25T06:11:46.994Z,67987.88
2022-12-25T06:14:15.523Z,67971.25
2022-12-25T06:16:42.689Z,68035.03
2022-12-25T06:19:09.446Z,67998.88
2022-12-25T06:21:36.191Z,67977.78
2022-12-25T06:24:03.142Z,68058.44
2022-12-25T06:26:29.775Z,68064.41
2022-12-25T06:28:56.381Z,68007.19
2022-12-25T06:31:24.224Z,68010.84
2022-12-25T06:33:51.218Z,68035.38
2022-12-25T06:36:23.071Z,68043.13
2022-12-25T06:38:49.654Z,68023.03
2022-12-25T06:41:22.408Z,67999.81
2022-12-25T06:43:54.740Z,68011.22
2022-12-25T06:46:22.529Z,67987.44
2022-12-25T06:48:49.966Z,68006.38
2022-12-25T06:51:18.745Z,68026.50
2022-12-25T06:53:45.808Z,68035.16
2022-12-25T06:56:15.967Z,68002.69
2022-12-25T06:58:48.016Z,68004.41
2022-12-25T07:01:22.230Z,68003.28
2022-12-25T07:03:51.661Z,68012.53
2022-12-25T07:06:18.375Z,68007.13
2022-12-25T07:08:45.101Z,67981.63
2022-12-25T07:11:12.048Z,67999.00
2022-12-25T07:13:38.768Z,68040.59
2022-12-25T07:16:07.669Z,68057.41
2022-12-25T07:18:35.188Z,67986.66
2022-12-25T07:21:16.907Z,68013.72
2022-12-25T07:23:45.291Z,68067.84
2022-12-25T07:26:12.937Z,68028.41
2022-12-25T07:28:39.881Z,68060.88
2022-12-25T07:31:15.529Z,68007.88
2022-12-25T07:33:43.008Z,68028.97
2022-12-25T07:36:12.610Z,68067.44
2022-12-25T07:38:43.516Z,68065.13
2022-12-25T07:41:12.967Z,68041.53
2022-12-25T07:43:40.060Z,68058.94
2022-12-25T07:46:06.939Z,68069.16
2022-12-25T07:48:34.238Z,68045.78
2022-12-25T07:51:05.712Z,68076.31
2022-12-25T07:53:33.305Z,68029.16
2022-12-25T07:56:02.637Z,68115.38
2022-12-25T07:58:30.454Z,68068.19
2022-12-25T08:01:19.621Z,68133.94
2022-12-25T08:03:58.025Z,68126.78
2022-12-25T08:06:29.797Z,68156.00
2022-12-25T08:09:08.921Z,68157.16
2022-12-25T08:11:37.016Z,68192.34
2022-12-25T08:14:08.732Z,68140.50
2022-12-25T08:16:36.160Z,68227.16
2022-12-25T08:19:03.001Z,68280.13
2022-12-25T08:21:29.832Z,68251.09
2022-12-25T08:23:56.980Z,68249.78
2022-12-25T08:26:24.094Z,68383.78
2022-12-25T08:28:51.444Z,68473.13
2022-12-25T08:31:22.519Z,68376.84
2022-12-25T08:33:52.147Z,68414.75
2022-12-25T08:36:19.409Z,68463.47
2022-12-25T08:38:54.570Z,68649.53
2022-12-25T08:41:26.921Z,68758.44
2022-12-25T08:43:54.611Z,68674.50
2022-12-25T08:46:21.367Z,68868.56
2022-12-25T08:48:49.663Z,68648.59
2022-12-25T08:51:19.192Z,68665.03
2022-12-25T08:53:47.761Z,68663.88
2022-12-25T08:56:15.110Z,68769.50
2022-12-25T08:58:42.044Z,68746.28
2022-12-25T09:01:08.845Z,68904.56
2022-12-25T09:03:35.890Z,68919.84
2022-12-25T09:06:08.817Z,69429.28
2022-12-25T09:08:36.265Z,69615.03
2022-12-25T09:11:09.651Z,69701.03
2022-12-25T09:13:37.039Z,69571.81
2022-12-25T09:16:12.830Z,69358.97
2022-12-25T09:18:39.706Z,69322.22
2022-12-25T09:21:09.766Z,69298.41
2022-12-25T09:23:36.587Z,69177.69
2022-12-25T09:26:06.014Z,69154.25
2022-12-25T09:28:33.555Z,68930.78
2022-12-25T09:31:00.363Z,68969.66
2022-12-25T09:33:27.774Z,68936.78
2022-12-25T09:35:58.490Z,69164.97
2022-12-25T09:38:25.738Z,69257.66
2022-12-25T09:41:21.754Z,69530.34
2022-12-25T09:44:10.081Z,69576.66
2022-12-25T09:47:12.550Z,69928.25
2022-12-25T09:49:49.807Z,69858.97
2022-12-25T09:52:20.841Z,69919.81
2022-12-25T09:55:00.097Z,69928.19
2022-12-25T09:57:26.828Z,69947.75
2022-12-25T09:59:56.961Z,69930.81
2022-12-25T10:03:01.076Z,69884.38
2022-12-25T10:05:46.139Z,69804.84
2022-12-25T10:08:43.374Z,69871.00
2022-12-25T10:11:22.442Z,69929.44
2022-12-25T10:14:10.533Z,69937.22
2022-12-25T10:16:40.241Z,69910.47
2022-12-25T10:19:28.001Z,69899.28
2022-12-25T10:22:00.877Z,69836.25
2022-12-25T10:24:38.717Z,69852.53
2022-12-25T10:27:15.764Z,69902.50
2022-12-25T10:29:46.482Z,69884.38
2022-12-25T10:32:13.783Z,69887.06
2022-12-25T10:34:43.599Z,69921.63
2022-12-25T10:37:11.941Z,69954.16
2022-12-25T10:39:45.881Z,69830.66
2022-12-25T10:42:39.014Z,69780.91
2022-12-25T10:45:09.419Z,69798.69
2022-12-25T10:47:42.030Z,69854.78
2022-12-25T10:50:17.824Z,69789.72
2022-12-25T10:53:05.961Z,69724.63
2022-12-25T10:55:33.414Z,69830.75
2022-12-25T10:58:02.090Z,69849.34
2022-12-25T11:00:31.478Z,69837.56
2022-12-25T11:02:58.975Z,69837.00
2022-12-25T11:05:30.281Z,69607.47
2022-12-25T11:07:59.511Z,69300.75
2022-12-25T11:10:34.638Z,69322.44
2022-12-25T11:13:02.728Z,69139.06
2022-12-25T11:15:46.486Z,68947.53
2022-12-25T11:18:27.411Z,69042.78
2022-12-25T11:20:55.933Z,69171.72
2022-12-25T11:23:24.520Z,69188.38
2022-12-25T11:26:06.176Z,69428.06
2022-12-25T11:28:35.008Z,69521.78
2022-12-25T11:31:07.028Z,69622.09
2022-12-25T11:33:38.824Z,69727.81
2022-12-25T11:36:20.079Z,69783.22
2022-12-25T11:38:46.981Z,69835.06
2022-12-25T11:41:20.707Z,69799.47
2022-12-25T11:43:53.965Z,69619.94
2022-12-25T11:46:33.691Z,69619.94
2022-12-25T11:49:10.704Z,69577.19
2022-12-25T11:51:40.322Z,69672.06
2022-12-25T11:54:22.173Z,69701.88
2022-12-25T11:56:49.321Z,69819.63
2022-12-25T11:59:27.729Z,69958.50
2022-12-25T12:02:32.164Z,70047.66
2022-12-25T12:05:09.237Z,70012.97
2022-12-25T12:07:39.634Z,69959.59
2022-12-25T12:10:16.283Z,69955.38
2022-12-25T12:13:31.074Z,69955.00
2022-12-25T12:15:58.621Z,69720.88
2022-12-25T12:18:28.067Z,69231.19
2022-12-25T12:21:20.963Z,69005.38
2022-12-25T12:23:56.173Z,69738.38
2022-12-25T12:26:25.444Z,69923.13
2022-12-25T12:28:55.509Z,69913.47
2022-12-25T12:31:22.539Z,69906.28
2022-12-25T12:33:54.472Z,69947.56
2022-12-25T12:36:35.599Z,69961.13
2022-12-25T12:39:05.965Z,69906.53
2022-12-25T12:41:45.946Z,69932.13
2022-12-25T12:44:14.390Z,69913.47
2022-12-25T12:46:54.159Z,69967.38
2022-12-25T12:49:28.111Z,69953.22
2022-12-25T12:52:24.452Z,69934.84
2022-12-25T12:55:06.169Z,69958.66
2022-12-25T12:57:39.964Z,69933.66
2022-12-25T13:00:19.411Z,69936.38
2022-12-25T13:02:58.018Z,69990.00
2022-12-25T13:05:39.235Z,69973.81
2022-12-25T13:08:28.377Z,69874.66
2022-12-25T13:11:23.203Z,69927.38
2022-12-25T13:13:52.838Z,69987.06
2022-12-25T13:16:33.368Z,69954.75
2022-12-25T13:19:05.514Z,69935.78
2022-12-25T13:21:33.210Z,69927.03
2022-12-25T13:24:09.022Z,69766.44
2022-12-25T13:26:36.306Z,69792.97
2022-12-25T13:29:07.951Z,69786.38
2022-12-25T13:31:37.898Z,69689.31
2022-12-25T13:34:14.317Z,69676.94
2022-12-25T13:36:41.124Z,69701.34
2022-12-25T13:39:09.866Z,69692.84
2022-12-25T13:42:08.614Z,69633.78
2022-12-25T13:44:49.108Z,69556.69
2022-12-25T13:47:23.885Z,69576.00
2022-12-25T13:49:52.641Z,69465.16
2022-12-25T13:52:27.349Z,69550.19
2022-12-25T13:55:00.704Z,69567.03
2022-12-25T13:57:31.354Z,69566.69
2022-12-25T13:59:58.157Z,69438.66
2022-12-25T14:02:31.048Z,69325.34
2022-12-25T14:04:58.055Z,69347.03
2022-12-25T14:07:25.365Z,69304.97
2022-12-25T14:10:00.485Z,69217.03
2022-12-25T14:12:30.352Z,69217.38
2022-12-25T14:15:00.369Z,69082.78
2022-12-25T14:17:27.314Z,68955.34
2022-12-25T14:20:05.653Z,68754.72
2022-12-25T14:22:36.102Z,68657.16
2022-12-25T14:25:02.840Z,68738.88
2022-12-25T14:27:32.941Z,68684.25
2022-12-25T14:30:00.689Z,68688.88
2022-12-25T14:32:38.314Z,68685.81
2022-12-25T14:35:06.049Z,68640.09
2022-12-25T14:37:34.130Z,68697.41
2022-12-25T14:40:05.153Z,68767.91
2022-12-25T14:42:35.337Z,68727.00
2022-12-25T14:45:24.834Z,68677.84
2022-12-25T14:47:54.285Z,68642.03
2022-12-25T14:50:27.391Z,68564.97
2022-12-25T14:52:54.284Z,68464.50
2022-12-25T14:55:24.301Z,68372.91
2022-12-25T14:58:04.971Z,68429.84
2022-12-25T15:00:37.940Z,68442.22
2022-12-25T15:03:15.854Z,68415.91
2022-12-25T15:05:42.781Z,68386.09
2022-12-25T15:08:10.253Z,68505.53
2022-12-25T15:13:26.287Z,68425.56
2022-12-25T15:16:04.368Z,68275.75
2022-12-25T15:18:37.155Z,68189.03
2022-12-25T15:21:04.129Z,68151.47
2022-12-25T15:23:31.049Z,68200.25
2022-12-25T15:25:57.983Z,68173.75
2022-12-25T15:28:24.820Z,68134.06
2022-12-25T15:30:52.210Z,68147.22
2022-12-25T15:33:19.397Z,68129.81
2022-12-25T15:35:46.469Z,68109.09
2022-12-25T15:38:13.718Z,68133.50
2022-12-25T15:40:42.249Z,68143.75
2022-12-25T15:43:39.028Z,68151.88
2022-12-25T15:46:00.864Z,68114.34
2022-12-25T15:48:27.728Z,68123.63
2022-12-25T15:50:54.534Z,68125.19
2022-12-25T15:53:21.175Z,68114.34
2022-12-25T15:55:48.028Z,68112.03
2022-12-25T15:58:15.288Z,68116.28
2022-12-25T16:00:42.107Z,68122.09
2022-12-25T16:03:09.828Z,68102.16
2022-12-25T16:05:37.199Z,68047.22
2022-12-25T16:08:04.036Z,68085.75
2022-12-25T16:10:36.622Z,68099.09
2022-12-25T16:13:06.200Z,68090.56
2022-12-25T16:15:33.130Z,68084.97
2022-12-25T16:17:59.925Z,68097.34
2022-12-25T16:20:26.892Z,68106.06
2022-12-25T16:22:53.651Z,68087.69
2022-12-25T16:25:20.538Z,68058.44
2022-12-25T16:27:48.069Z,68102.22
2022-12-25T16:30:17.580Z,68058.88
2022-12-25T16:32:48.195Z,68082.50
2022-12-25T16:35:14.952Z,68062.34
2022-12-25T16:37:41.620Z,68097.00
2022-12-25T16:40:09.728Z,68107.84
2022-12-25T16:42:37.775Z,68120.22
2022-12-25T16:45:04.922Z,68054.66
2022-12-25T16:47:31.680Z,68088.69
2022-12-25T16:49:58.393Z,68113.28
2022-12-25T16:52:25.082Z,68042.25
2022-12-25T16:54:52.800Z,68109.00
2022-12-25T16:57:19.467Z,68053.09
2022-12-25T16:59:46.749Z,68103.56
2022-12-25T17:02:22.559Z,68062.94
2022-12-25T17:04:49.679Z,68065.25
2022-12-25T17:07:17.570Z,68084.78
2022-12-25T17:09:48.479Z,68070.84
2022-12-25T17:12:16.727Z,68076.84
2022-12-25T17:14:43.619Z,68072.00
2022-12-25T17:17:10.427Z,68055.75
2022-12-25T17:19:37.278Z,68093.09
2022-12-25T17:22:04.588Z,68054.59
2022-12-25T17:24:33.910Z,68098.53
2022-12-25T17:27:00.952Z,68070.47
2022-12-25T17:29:27.881Z,68069.88
2022-12-25T17:31:56.332Z,68072.59
2022-12-25T17:34:23.083Z,68076.44
2022-12-25T17:36:49.795Z,68068.31
2022-12-25T17:39:16.445Z,68092.69
2022-12-25T17:41:43.499Z,68052.06
2022-12-25T17:44:10.631Z,68100.81
2022-12-25T17:46:42.244Z,68091.94
2022-12-25T17:49:14.329Z,68053.22
2022-12-25T17:51:42.194Z,68112.41
2022-12-25T17:54:09.668Z,68098.13
2022-12-25T17:56:37.398Z,68069.06
2022-12-25T17:59:08.528Z,68095.00
2022-12-25T18:01:38.644Z,68079.91
2022-12-25T18:04:06.329Z,68085.75
2022-12-25T18:06:35.894Z,68085.75
2022-12-25T18:09:05.330Z,68071.22
2022-12-25T18:11:36.796Z,68084.56
2022-12-25T18:14:06.804Z,68070.03
2022-12-25T18:16:35.344Z,68078.75
2022-12-25T18:19:02.168Z,68117.28
2022-12-25T18:21:29.293Z,68071.22
2022-12-25T18:23:56.143Z,68032.69
2022-12-25T18:26:23.500Z,68076.03
2022-12-25T18:28:51.021Z,68083.59
2022-12-25T18:31:20.790Z,68110.50
2022-12-25T18:33:47.997Z,68121.34
2022-12-25T18:36:16.870Z,68090.56
2022-12-25T18:38:43.796Z,68070.25
2022-12-25T18:41:11.377Z,68076.84
2022-12-25T18:43:52.096Z,68056.72
2022-12-25T18:46:27.115Z,68088.66
2022-12-25T18:48:56.196Z,68061.38
2022-12-25T18:51:23.639Z,68074.94
2022-12-25T18:53:51.419Z,68060.81
2022-12-25T18:56:19.531Z,68079.59
2022-12-25T18:58:47.242Z,68068.94
2022-12-25T19:01:19.440Z,68107.84
2022-12-25T19:03:49.205Z,68058.50
2022-12-25T19:06:22.952Z,68119.84
2022-12-25T19:08:50.143Z,68080.75
2022-12-25T19:11:17.625Z,68089.84
2022-12-25T19:13:44.354Z,68033.53
2022-12-25T19:16:11.626Z,68096.44
2022-12-25T19:18:39.199Z,68100.13
2022-12-25T19:21:08.162Z,68056.78
2022-12-25T19:23:35.540Z,68040.50
2022-12-25T19:26:05.601Z,68083.28
2022-12-25T19:28:32.497Z,68082.72
2022-12-25T19:31:00.346Z,68069.16
2022-12-25T19:33:27.240Z,68083.09
2022-12-25T19:35:53.928Z,68072.66
2022-12-25T19:38:21.520Z,68057.00
2022-12-25T19:41:01.000Z,68066.09
2022-12-25T19:43:30.183Z,68088.91
2022-12-25T19:45:59.607Z,68089.31
2022-12-25T19:48:26.414Z,68048.28
2022-12-25T19:50:53.366Z,68057.56
2022-12-25T19:53:23.569Z,68072.66
2022-12-25T19:55:54.734Z,68060.84
2022-12-25T19:58:22.424Z,68097.78
2022-12-25T20:01:07.734Z,68081.53
2022-12-25T20:03:38.801Z,68057.16
2022-12-25T20:06:11.240Z,68092.38
2022-12-25T20:08:37.836Z,68080.78
2022-12-25T20:11:04.497Z,68061.03
2022-12-25T20:13:31.300Z,68042.47
2022-12-25T20:16:01.752Z,68055.63
2022-12-25T20:18:29.029Z,68061.03
2022-12-25T20:21:07.993Z,68080.38
2022-12-25T20:23:35.954Z,68076.13
2022-12-25T20:26:04.825Z,68043.06
2022-12-25T20:28:33.496Z,68049.03
2022-12-25T20:31:08.479Z,68115.22
2022-12-25T20:33:36.215Z,68077.09
2022-12-25T20:36:04.177Z,68075.16
2022-12-25T20:38:35.192Z,68082.72
2022-12-25T20:43:54.749Z,68051.34
2022-12-25T20:46:22.654Z,68081.53
2022-12-25T20:48:49.398Z,68087.53
2022-12-25T20:51:18.693Z,68034.69
2022-12-25T20:53:46.499Z,68062.19
2022-12-25T20:56:18.936Z,68063.34
2022-12-25T20:58:45.844Z,68093.88
2022-12-25T21:01:19.227Z,68086.94
2022-12-25T21:03:46.276Z,68016.50
2022-12-25T21:06:13.410Z,68077.63
2022-12-25T21:08:41.122Z,68056.53
2022-12-25T21:11:08.630Z,68095.63
2022-12-25T21:13:38.640Z,68093.31
2022-12-25T21:16:07.198Z,68083.47
2022-12-25T21:18:34.278Z,68086.19
2022-12-25T21:21:05.541Z,68090.44
2022-12-25T21:23:33.142Z,68068.19
2022-12-25T21:25:59.852Z,68059.09
2022-12-25T21:28:27.279Z,68068.75
2022-12-25T21:30:53.933Z,68086.56
2022-12-25T21:33:38.974Z,68062.19
2022-12-25T21:36:10.638Z,68082.13
2022-12-25T21:38:38.572Z,68055.63
2022-12-25T21:41:07.770Z,68061.03
2022-12-25T21:43:35.554Z,68067.25
2022-12-25T21:46:12.017Z,68104.38
2022-12-25T21:48:40.189Z,68068.97
2022-12-25T21:51:46.914Z,68080.97
2022-12-25T21:54:14.145Z,68051.19
2022-12-25T21:56:45.171Z,68086.97
2022-12-25T21:59:15.610Z,68062.78
2022-12-25T22:01:42.741Z,68110.59
2022-12-25T22:04:11.327Z,68043.44
2022-12-25T22:06:56.319Z,68025.63
2022-12-25T22:09:23.582Z,68088.91
2022-12-25T22:12:08.803Z,68079.63
2022-12-25T22:14:54.800Z,68064.53
2022-12-25T22:17:42.764Z,68075.94
2022-12-25T22:20:12.550Z,68050.22
2022-12-25T22:22:39.259Z,68091.44
2022-12-25T22:25:07.103Z,68057.97
2022-12-25T22:27:36.391Z,68058.34
2022-12-25T22:30:03.763Z,68061.06
2022-12-25T22:32:30.390Z,68079.63
2022-12-25T22:34:57.108Z,68073.06
2022-12-25T22:37:24.308Z,68063.78
2022-12-25T22:39:51.037Z,68052.53
2022-12-25T22:42:17.840Z,68078.50
2022-12-25T22:44:45.761Z,68077.31
2022-12-25T22:47:12.358Z,68109.25
2022-12-25T22:49:39.593Z,68068.63
2022-12-25T22:52:08.067Z,68089.72
2022-12-25T22:54:34.890Z,68065.72
2022-12-25T22:57:01.709Z,68070.59
2022-12-25T22:59:28.426Z,68099.41
2022-12-25T23:01:55.191Z,68080.81
2022-12-25T23:04:22.089Z,68086.84
2022-12-25T23:06:48.888Z,68048.91
2022-12-25T23:09:24.365Z,68090.09
2022-12-25T23:11:51.595Z,68086.84
2022-12-25T23:14:36.857Z,68036.53
2022-12-25T23:17:03.590Z,68083.16
2022-12-25T23:19:49.169Z,68034.78
2022-12-25T23:22:34.468Z,68042.91
2022-12-25T23:25:19.828Z,68051.44
2022-12-25T23:27:46.648Z,68062.47
2022-12-25T23:30:16.610Z,68059.16
2022-12-25T23:32:44.257Z,68004.41
2022-12-25T23:35:11.464Z,68025.50
2022-12-25T23:37:38.076Z,68056.84
2022-12-25T23:40:05.312Z,68068.84
2022-12-25T23:42:32.033Z,68035.19
2022-12-25T23:44:58.607Z,68064.56
2022-12-25T23:47:25.316Z,68088.78
2022-12-25T23:49:52.003Z,68063.44
2022-12-25T23:52:18.621Z,68031.50
2022-12-25T23:54:45.249Z,68087.81
2022-12-25T23:57:12.019Z,68123.00
2022-12-25T23:59:39.436Z,68060.13
